• Join FlightAware (Why Join?)
  • Login
  • US Flag 
05:42AM EDT


 

Airport Tracker/Info


-or-


 

Live Flight TrackerFlight Track Log ✈ SKW6528 ✈ 25-Apr-2013 ✈ KDEN - KSGF

Flight Track Log - Related Links

Times and Time Zones

All times are in EDT time to prevent confusion due to time zone crossing. See the SKW6528 flight status page for this flight to view local times or setup timezone preferences in your user account.

Time Position Orientation Groundspeed Altitude Reporting Facility
EDT Latitude Longitude Course Direction KTS MPH feet Rate Location/Type
12:17PM 39.7697 -104.1588 103° East  Level Estimated
12:18PM 39.7386 -103.9876 103° East  Level Estimated
12:19PM 39.7072 -103.8166 103° East  Level Estimated
12:20PM 39.6755 -103.6458 103° East  Level Estimated
12:21PM 39.6436 -103.4751 104° East  Level Estimated
12:22PM 39.6115 -103.3046 104° East  Level Estimated
12:23PM 39.5791 -103.1342 104° East  Level Estimated
12:24PM 39.5464 -102.9640 104° East  Level Estimated
12:25PM 39.5135 -102.7939 104° East  Level Estimated
12:26PM 39.4804 -102.6240 104° East  Level Estimated
12:27PM 39.4470 -102.4543 104° East  Level Estimated
12:28PM 39.4133 -102.2847 104° East  Level Estimated
12:29PM 39.3795 -102.1153 104° East  Level Estimated
12:30PM 39.3453 -101.9461 105° East  Level Estimated
12:31PM 39.3109 -101.7770 105° East  Level Estimated
12:32PM 39.2763 -101.6081 105° East  Level Estimated
12:33PM 39.2415 -101.4394 105° East  Level Estimated
12:34PM 39.2063 -101.2708 105° East  Level Estimated
12:35PM 39.1710 -101.1024 105° East  Level Estimated
12:36PM 39.1354 -100.9342 105° East  Level Estimated
12:37PM 39.0996 -100.7662 105° East  Level Estimated
12:38PM 39.0635 -100.5983 105° East  Level Estimated
12:39PM 39.0272 -100.4306 106° East  Level Estimated
12:40PM 38.9906 -100.2630 106° East  Level Estimated
12:41PM 38.9538 -100.0956 106° East  Level Estimated
12:42PM 38.9168 -99.9285 106° East  Level Estimated
12:43PM 38.8795 -99.7614 106° East  Level Estimated
12:44PM 38.8420 -99.5946 106° East  Level Estimated
12:45PM 38.8042 -99.4279 106° East  Level Estimated
12:46PM 38.7663 -99.2614 106° East  Level Estimated
12:47PM 38.7280 -99.0951 106° East  Level Estimated
12:48PM 38.6896 -98.9290 106° East  Level Estimated
12:49PM 38.6509 -98.7630 107° East  Level Estimated
12:50PM 38.6120 -98.5973 107° East  Level Estimated
12:51PM 38.5728 -98.4317 107° East  Level Estimated
12:52PM 38.5334 -98.2663 107° East  Level Estimated
12:53PM 38.4938 -98.1011 107° East  Level Estimated
12:54PM 38.4539 -97.9360 107° East  Level Estimated
12:55PM 38.4139 -97.7711 107° East  Level Estimated
12:56PM 38.3735 -97.6065 107° East  Level Estimated
12:57PM 38.3330 -97.4419 107° East  Level Estimated
12:58PM 38.2922 -97.2776 107° East  Level Estimated
12:59PM 38.2512 -97.1135 108° East  Level Estimated
01:00PM 38.2100 -96.9496 108° East  Level Estimated
01:01PM 38.1685 -96.7858 108° East  Level Estimated
01:02PM 38.1268 -96.6222 108° East  Level Estimated
01:03PM 38.0849 -96.4589 108° East  Level Estimated
01:04PM 38.0428 -96.2957 108° East  Level Estimated
01:05PM 38.0004 -96.1327 108° East  Level Estimated
01:06PM 37.9578 -95.9698 108° East  Level Estimated
01:07PM 37.9150 -95.8072 108° East  Level Estimated
01:08PM 37.8719 -95.6448 109° East  Level Estimated
01:09PM 37.8287 -95.4825 109° East  Level Estimated
01:10PM 37.7852 -95.3204 109° East  Level Estimated
01:11PM 37.7415 -95.1586 109° East  Level Estimated
01:12PM 37.6976 -94.9969 109° East  Level Estimated
01:13PM 37.6534 -94.8354 109° East  Level Estimated
01:14PM 37.6091 -94.6741 109° East  Level Estimated
01:15PM 37.5645 -94.5130 109° East  Level Estimated
01:16PM 37.5197 -94.3521 109° East  Level Estimated
01:17PM 37.4746 -94.1914 109° East  Level Estimated
01:18PM 37.4294 -94.0309 109° East  Level Estimated
01:19PM 37.3839 -93.8706 110° East  Level Estimated
01:20PM 37.3383 -93.7104 110° East  Level Estimated
01:21PM 37.2924 -93.5505 110° East  Level Estimated
01:22PM 37.2463 -93.3908 110° East  Level Estimated
01:23PM 37.2457 -93.3886 110° East  Level Estimated
01:24PM 37.2457 -93.3886 165° South  Level Estimated
01:25PM 37.2457 -93.3886 165° South  Level Estimated
01:26PM 37.2457 -93.3886 165° South  Level Estimated
01:27PM 37.2457 -93.3886 165° South  Level Estimated